createdAt,value
2023-03-13T00:00:24.768Z,2.30
2023-03-13T00:02:51.389Z,1.87
2023-03-13T00:05:18.196Z,2.03
2023-03-13T00:07:44.980Z,2.43
2023-03-13T00:10:11.844Z,1.77
2023-03-13T00:12:38.494Z,2.10
2023-03-13T00:15:05.502Z,3.80
2023-03-13T00:17:33.406Z,2.20
2023-03-13T00:20:00.313Z,1.80
2023-03-13T00:22:27.092Z,2.47
2023-03-13T00:24:53.725Z,1.70
2023-03-13T00:27:20.341Z,2.70
2023-03-13T00:29:46.974Z,1.77
2023-03-13T00:32:13.600Z,2.10
2023-03-13T00:34:40.291Z,2.13
2023-03-13T00:37:06.980Z,1.80
2023-03-13T00:39:33.678Z,1.93
2023-03-13T00:42:03.783Z,1.93
2023-03-13T00:44:30.666Z,1.83
2023-03-13T00:46:57.308Z,2.03
2023-03-13T00:49:24.161Z,2.30
2023-03-13T00:51:50.810Z,2.40
2023-03-13T00:54:17.434Z,2.40
2023-03-13T00:56:44.041Z,1.90
2023-03-13T00:59:10.865Z,2.10
2023-03-13T01:01:37.762Z,1.67
2023-03-13T01:04:10.312Z,2.00
2023-03-13T01:06:40.732Z,2.10
2023-03-13T01:09:08.339Z,2.33
2023-03-13T01:11:36.781Z,1.80
2023-03-13T01:14:06.625Z,2.20
2023-03-13T01:16:35.289Z,2.63
2023-03-13T01:19:10.192Z,2.10
2023-03-13T01:21:38.653Z,2.47
2023-03-13T01:24:05.581Z,2.73
2023-03-13T01:26:32.230Z,1.90
2023-03-13T01:28:58.895Z,2.07
2023-03-13T01:31:31.146Z,2.40
2023-03-13T01:33:59.689Z,1.90
2023-03-13T01:36:27.189Z,2.10
2023-03-13T01:38:55.889Z,2.47
2023-03-13T01:41:23.602Z,2.10
2023-03-13T01:43:50.784Z,2.70
2023-03-13T01:46:20.634Z,3.50
2023-03-13T01:48:59.763Z,3.00
2023-03-13T01:51:38.771Z,3.77
2023-03-13T01:54:10.284Z,3.63
2023-03-13T01:56:43.083Z,3.50
2023-03-13T01:59:13.593Z,3.73
2023-03-13T02:01:42.516Z,3.70
2023-03-13T02:04:09.248Z,3.53
2023-03-13T02:06:40.713Z,2.73
2023-03-13T02:09:14.874Z,3.07
2023-03-13T02:11:44.419Z,3.17
2023-03-13T02:14:11.096Z,3.10
2023-03-13T02:16:38.395Z,2.90
2023-03-13T02:19:17.762Z,2.87
2023-03-13T02:22:06.477Z,2.60
2023-03-13T02:24:40.801Z,2.87
2023-03-13T02:27:07.940Z,3.10
2023-03-13T02:29:34.807Z,3.03
2023-03-13T02:32:01.458Z,3.30
2023-03-13T02:34:32.278Z,2.90
2023-03-13T02:37:00.740Z,2.70
2023-03-13T02:39:30.230Z,3.27
2023-03-13T02:41:57.916Z,2.97
2023-03-13T02:44:24.678Z,2.87
2023-03-13T02:46:52.581Z,3.03
2023-03-13T02:49:31.443Z,2.77
2023-03-13T02:52:10.744Z,3.63
2023-03-13T02:54:40.201Z,2.83
2023-03-13T02:57:07.006Z,2.37
2023-03-13T02:59:35.055Z,2.27
2023-03-13T03:02:01.743Z,2.37
2023-03-13T03:04:28.416Z,1.93
2023-03-13T03:06:55.268Z,1.57
2023-03-13T03:09:22.965Z,1.10
2023-03-13T03:11:50.183Z,1.20
2023-03-13T03:14:17.401Z,1.20
2023-03-13T03:16:44.483Z,1.17
2023-03-13T03:19:11.471Z,0.80
2023-03-13T03:21:38.660Z,1.07
2023-03-13T03:24:05.750Z,0.80
2023-03-13T03:26:32.766Z,1.10
2023-03-13T03:28:59.465Z,0.70
2023-03-13T03:31:26.253Z,0.90
2023-03-13T03:33:52.872Z,0.80
2023-03-13T03:36:22.207Z,0.67
2023-03-13T03:38:49.088Z,1.00
2023-03-13T03:41:16.296Z,0.50
2023-03-13T03:43:43.470Z,0.90
2023-03-13T03:46:10.333Z,0.80
2023-03-13T03:48:37.742Z,0.80
2023-03-13T03:51:04.923Z,0.93
2023-03-13T03:53:32.402Z,0.80
2023-03-13T03:55:59.627Z,0.80
2023-03-13T03:58:26.288Z,0.70
2023-03-13T04:00:52.898Z,1.07
2023-03-13T04:03:19.584Z,0.87
2023-03-13T04:05:46.308Z,1.00
2023-03-13T04:08:13.106Z,0.70
2023-03-13T04:10:39.874Z,0.60
2023-03-13T04:13:06.523Z,0.90
2023-03-13T04:15:33.281Z,0.60
2023-03-13T04:17:59.906Z,0.53
2023-03-13T04:20:26.821Z,0.80
2023-03-13T04:22:53.559Z,0.60
2023-03-13T04:25:20.538Z,0.50
2023-03-13T04:27:47.146Z,0.60
2023-03-13T04:30:14.799Z,0.70
2023-03-13T04:32:42.592Z,0.70
2023-03-13T04:35:09.684Z,0.60
2023-03-13T04:37:36.402Z,0.90
2023-03-13T04:40:03.338Z,1.20
2023-03-13T04:42:29.983Z,1.23
2023-03-13T04:44:56.607Z,0.87
2023-03-13T04:47:23.280Z,0.80
2023-03-13T04:49:49.983Z,0.40
2023-03-13T04:52:16.613Z,0.63
2023-03-13T04:54:43.274Z,0.50
2023-03-13T04:57:09.974Z,0.57
2023-03-13T04:59:36.649Z,0.50
2023-03-13T05:02:03.518Z,0.63
2023-03-13T05:04:30.177Z,0.40
2023-03-13T05:06:56.782Z,0.50
2023-03-13T05:09:24.985Z,0.50
2023-03-13T05:11:51.588Z,0.50
2023-03-13T05:14:19.494Z,0.47
2023-03-13T05:16:46.177Z,0.40
2023-03-13T05:19:12.785Z,0.77
2023-03-13T05:21:39.497Z,0.40
2023-03-13T05:24:06.364Z,0.60
2023-03-13T05:26:33.006Z,0.43
2023-03-13T05:28:59.656Z,0.67
2023-03-13T05:31:26.332Z,0.70
2023-03-13T05:33:53.027Z,0.40
2023-03-13T05:36:19.740Z,0.80
2023-03-13T05:38:46.485Z,0.53
2023-03-13T05:41:13.137Z,0.30
2023-03-13T05:43:39.778Z,0.53
2023-03-13T05:46:06.480Z,0.60
2023-03-13T05:48:33.114Z,1.00
2023-03-13T05:50:59.743Z,0.87
2023-03-13T05:53:26.565Z,0.80
2023-03-13T05:55:53.189Z,0.60
2023-03-13T05:58:19.900Z,0.97
2023-03-13T06:00:46.592Z,0.50
2023-03-13T06:03:14.504Z,0.50
2023-03-13T06:05:41.322Z,0.60
2023-03-13T06:08:08.337Z,0.50
2023-03-13T06:10:35.034Z,0.50
2023-03-13T06:13:17.256Z,0.40
2023-03-13T06:15:56.592Z,0.57
2023-03-13T06:18:24.438Z,0.60
2023-03-13T06:21:00.182Z,0.60
2023-03-13T06:23:27.191Z,0.57
2023-03-13T06:25:54.441Z,0.70
2023-03-13T06:28:21.370Z,0.53
2023-03-13T06:30:48.167Z,0.70
2023-03-13T06:33:15.054Z,0.70
2023-03-13T06:35:55.082Z,0.80
2023-03-13T06:38:23.714Z,0.90
2023-03-13T06:40:50.374Z,0.57
2023-03-13T06:43:17.063Z,0.53
2023-03-13T06:45:43.843Z,0.60
2023-03-13T06:48:10.512Z,0.60
2023-03-13T06:50:41.023Z,0.60
2023-03-13T06:53:08.202Z,0.53
2023-03-13T06:55:34.945Z,0.43
2023-03-13T06:58:01.703Z,0.50
2023-03-13T07:00:28.704Z,0.30
2023-03-13T07:02:55.436Z,0.83
2023-03-13T07:05:22.119Z,0.20
2023-03-13T07:07:48.787Z,0.33
2023-03-13T07:10:15.493Z,0.50
2023-03-13T07:12:42.168Z,0.57
2023-03-13T07:15:09.762Z,0.40
2023-03-13T07:17:36.993Z,0.40
2023-03-13T07:20:05.388Z,0.50
2023-03-13T07:22:32.264Z,0.40
2023-03-13T07:24:59.011Z,0.40
2023-03-13T07:27:25.716Z,0.30
2023-03-13T07:29:52.510Z,0.37
2023-03-13T07:32:19.173Z,0.30
2023-03-13T07:34:45.818Z,0.50
2023-03-13T07:37:13.284Z,0.40
2023-03-13T07:39:40.158Z,0.40
2023-03-13T07:42:07.100Z,0.30
2023-03-13T07:44:33.747Z,0.20
2023-03-13T07:47:01.261Z,0.40
2023-03-13T07:49:27.958Z,0.30
2023-03-13T07:51:55.052Z,0.37
2023-03-13T07:54:21.770Z,0.23
2023-03-13T07:56:48.826Z,0.40
2023-03-13T07:59:15.527Z,0.20
2023-03-13T08:01:42.293Z,0.40
2023-03-13T08:04:14.088Z,0.47
2023-03-13T08:06:41.935Z,0.40
2023-03-13T08:09:09.704Z,0.50
2023-03-13T08:11:41.121Z,0.47
2023-03-13T08:14:08.580Z,0.50
2023-03-13T08:16:35.999Z,0.40
2023-03-13T08:19:05.849Z,0.40
2023-03-13T08:21:35.415Z,0.33
2023-03-13T08:24:06.742Z,0.50
2023-03-13T08:26:35.516Z,0.33
2023-03-13T08:29:06.883Z,0.40
2023-03-13T08:31:42.063Z,0.40
2023-03-13T08:34:08.815Z,0.30
2023-03-13T08:36:37.044Z,0.50
2023-03-13T08:39:06.802Z,0.30
2023-03-13T08:41:36.587Z,0.40
2023-03-13T08:44:05.388Z,0.50
2023-03-13T08:46:34.476Z,0.40
2023-03-13T08:49:01.884Z,0.40
2023-03-13T08:51:29.545Z,0.50
2023-03-13T08:53:56.643Z,0.40
2023-03-13T08:56:25.996Z,0.40
2023-03-13T08:58:54.621Z,0.60
2023-03-13T09:01:23.786Z,0.50
2023-03-13T09:03:51.126Z,0.43
2023-03-13T09:06:18.222Z,0.40
2023-03-13T09:08:45.245Z,0.40
2023-03-13T09:11:15.645Z,0.40
2023-03-13T09:13:45.279Z,0.40
2023-03-13T09:16:17.488Z,0.60
2023-03-13T09:18:44.912Z,0.37
2023-03-13T09:21:23.090Z,0.50
2023-03-13T09:23:50.119Z,0.40
2023-03-13T09:26:19.246Z,0.50
2023-03-13T09:28:47.299Z,0.40
2023-03-13T09:31:16.801Z,0.40
2023-03-13T09:33:44.912Z,0.47
2023-03-13T09:36:12.384Z,0.50
2023-03-13T09:38:39.749Z,0.60
2023-03-13T09:41:23.842Z,0.40
2023-03-13T09:44:23.160Z,0.80
2023-03-13T09:47:05.214Z,0.50
2023-03-13T09:49:39.420Z,0.50
2023-03-13T09:52:19.403Z,0.60
2023-03-13T09:54:57.398Z,0.60
2023-03-13T09:57:42.869Z,0.70
2023-03-13T10:00:40.336Z,0.67
2023-03-13T10:03:25.566Z,0.70
2023-03-13T10:05:58.872Z,0.83
2023-03-13T10:08:29.896Z,0.80
2023-03-13T10:11:15.341Z,0.50
2023-03-13T10:13:50.843Z,0.47
2023-03-13T10:16:30.100Z,0.60
2023-03-13T10:18:59.814Z,0.50
2023-03-13T10:21:36.058Z,0.60
2023-03-13T10:24:23.377Z,0.50
2023-03-13T10:26:50.092Z,1.00
2023-03-13T10:29:24.850Z,0.80
2023-03-13T10:31:59.133Z,0.67
2023-03-13T10:34:28.388Z,0.70
2023-03-13T10:36:59.331Z,0.67
2023-03-13T10:39:30.369Z,0.60
2023-03-13T10:42:08.173Z,0.83
2023-03-13T10:44:34.936Z,0.80
2023-03-13T10:47:02.940Z,1.10
2023-03-13T10:49:31.568Z,1.00
2023-03-13T10:52:01.883Z,0.80
2023-03-13T10:54:31.518Z,0.77
2023-03-13T10:57:25.928Z,0.70
2023-03-13T10:59:53.944Z,0.67
2023-03-13T11:02:37.236Z,0.90
2023-03-13T11:05:31.267Z,0.70
2023-03-13T11:07:58.038Z,0.90
2023-03-13T11:10:36.844Z,0.70
2023-03-13T11:13:03.844Z,1.00
2023-03-13T11:15:39.415Z,0.80
2023-03-13T11:18:35.472Z,0.90
2023-03-13T11:21:17.300Z,0.60
2023-03-13T11:23:52.172Z,0.90
2023-03-13T11:26:29.805Z,0.80
2023-03-13T11:29:19.590Z,0.80
2023-03-13T11:31:55.129Z,0.70
2023-03-13T11:34:36.606Z,0.93
2023-03-13T11:37:09.315Z,1.20
2023-03-13T11:40:13.043Z,0.70
2023-03-13T11:42:54.690Z,0.70
2023-03-13T11:45:45.636Z,0.90
2023-03-13T11:48:31.117Z,0.77
2023-03-13T11:51:20.553Z,1.00
2023-03-13T11:53:56.039Z,0.80
2023-03-13T11:56:31.564Z,0.60
2023-03-13T11:59:07.048Z,0.63
2023-03-13T12:01:49.394Z,0.50
2023-03-13T12:04:27.792Z,0.70
2023-03-13T12:07:23.966Z,0.60
2023-03-13T12:10:16.197Z,0.60
2023-03-13T12:12:48.101Z,0.60
2023-03-13T12:15:19.186Z,0.70
2023-03-13T12:18:17.598Z,0.77
2023-03-13T12:21:02.502Z,0.70
2023-03-13T12:23:59.297Z,0.60
2023-03-13T12:26:51.516Z,0.63
2023-03-13T12:29:47.853Z,0.60
2023-03-13T12:32:45.348Z,0.60
2023-03-13T12:35:28.978Z,0.53
2023-03-13T12:37:55.700Z,0.63
2023-03-13T12:40:34.503Z,0.50
2023-03-13T12:43:20.307Z,0.70
2023-03-13T12:46:10.383Z,1.23
2023-03-13T12:49:11.406Z,0.70
2023-03-13T12:52:06.237Z,0.70
2023-03-13T12:54:35.685Z,0.40
2023-03-13T12:57:30.012Z,0.60
2023-03-13T13:00:05.514Z,0.50
2023-03-13T13:02:32.689Z,0.70
2023-03-13T13:05:02.172Z,0.60
2023-03-13T13:07:38.097Z,0.60
2023-03-13T13:10:04.827Z,0.60
2023-03-13T13:12:31.752Z,0.60
2023-03-13T13:15:04.019Z,0.70
2023-03-13T13:17:34.839Z,0.70
2023-03-13T13:20:33.310Z,0.70
2023-03-13T13:23:22.053Z,0.47
2023-03-13T13:25:49.764Z,1.40
2023-03-13T13:28:21.805Z,0.70
2023-03-13T13:30:49.744Z,0.53
2023-03-13T13:33:21.394Z,0.70
2023-03-13T13:36:13.716Z,0.70
2023-03-13T13:38:42.335Z,0.70
2023-03-13T13:41:12.181Z,0.77
2023-03-13T13:43:43.986Z,1.17
2023-03-13T13:46:29.717Z,0.70
2023-03-13T13:49:08.239Z,0.60
2023-03-13T13:51:37.091Z,0.60
2023-03-13T13:54:24.502Z,0.60
2023-03-13T13:57:15.503Z,0.80
2023-03-13T13:59:44.966Z,0.60
2023-03-13T14:02:36.491Z,0.70
2023-03-13T14:05:08.027Z,0.70
2023-03-13T14:08:07.624Z,0.87
2023-03-13T14:10:46.888Z,1.33
2023-03-13T14:13:24.820Z,0.80
2023-03-13T14:15:53.185Z,0.80
2023-03-13T14:18:30.759Z,0.80
2023-03-13T14:23:54.717Z,0.60
2023-03-13T14:26:26.855Z,0.70
2023-03-13T14:28:59.135Z,0.80
2023-03-13T14:31:37.558Z,0.80
2023-03-13T14:34:14.167Z,0.60
2023-03-13T14:36:52.234Z,0.70
2023-03-13T14:39:49.333Z,0.70
2023-03-13T14:42:18.274Z,0.60
2023-03-13T14:44:47.512Z,0.60
2023-03-13T14:47:21.384Z,0.60
2023-03-13T14:49:48.182Z,0.60
2023-03-13T14:52:23.775Z,0.43
2023-03-13T14:55:04.417Z,0.57
2023-03-13T14:57:32.071Z,0.40
2023-03-13T15:00:38.345Z,0.53
2023-03-13T15:03:17.215Z,0.70
2023-03-13T15:05:45.587Z,0.63
2023-03-13T15:08:22.293Z,0.50
2023-03-13T15:10:50.290Z,0.63
2023-03-13T15:13:23.014Z,0.73
2023-03-13T15:15:51.219Z,0.70
2023-03-13T15:18:21.141Z,0.70
2023-03-13T15:21:00.040Z,0.50
2023-03-13T15:23:26.751Z,0.63
2023-03-13T15:25:53.418Z,0.70
2023-03-13T15:28:23.327Z,0.50
2023-03-13T15:30:52.025Z,0.70
2023-03-13T15:33:22.968Z,0.40
2023-03-13T15:35:50.332Z,0.40
2023-03-13T15:38:19.462Z,0.57
2023-03-13T15:40:46.841Z,0.57
2023-03-13T15:43:14.727Z,1.13
2023-03-13T15:45:43.719Z,0.50
2023-03-13T15:48:14.901Z,0.50
2023-03-13T15:50:44.571Z,0.70
2023-03-13T15:53:24.837Z,0.50
2023-03-13T15:55:53.732Z,0.57
2023-03-13T15:58:20.525Z,0.80
2023-03-13T16:00:49.083Z,0.50
2023-03-13T16:03:19.430Z,0.90
2023-03-13T16:05:47.824Z,0.40
2023-03-13T16:08:40.740Z,0.50
2023-03-13T16:11:07.490Z,0.60
2023-03-13T16:13:34.285Z,0.60
2023-03-13T16:16:00.996Z,0.50
2023-03-13T16:18:27.725Z,0.73
2023-03-13T16:20:54.403Z,0.53
2023-03-13T16:23:21.078Z,0.40
2023-03-13T16:25:49.040Z,0.47
2023-03-13T16:28:16.364Z,0.50
2023-03-13T16:30:49.435Z,0.40
2023-03-13T16:33:16.267Z,0.50
2023-03-13T16:35:43.029Z,0.50
2023-03-13T16:38:14.353Z,0.33
2023-03-13T16:40:41.194Z,0.40
2023-03-13T16:43:11.631Z,0.53
2023-03-13T16:45:38.299Z,0.40
2023-03-13T16:48:05.165Z,0.43
2023-03-13T16:50:34.272Z,0.40
2023-03-13T16:53:01.422Z,0.37
2023-03-13T16:55:28.920Z,0.60
2023-03-13T16:57:57.282Z,0.70
2023-03-13T17:00:25.702Z,0.90
2023-03-13T17:02:52.690Z,0.77
2023-03-13T17:05:19.533Z,0.80
2023-03-13T17:07:48.367Z,0.90
2023-03-13T17:10:15.313Z,0.60
2023-03-13T17:12:41.996Z,0.60
2023-03-13T17:15:09.155Z,0.60
2023-03-13T17:17:36.460Z,0.63
2023-03-13T17:20:05.487Z,0.57
2023-03-13T17:22:32.390Z,0.50
2023-03-13T17:24:59.056Z,0.50
2023-03-13T17:27:25.993Z,0.70
2023-03-13T17:29:52.795Z,0.60
2023-03-13T17:32:20.218Z,0.67
2023-03-13T17:34:47.374Z,0.70
2023-03-13T17:37:17.015Z,0.47
2023-03-13T17:39:44.281Z,0.60
2023-03-13T17:42:11.304Z,0.67
2023-03-13T17:44:39.252Z,0.60
2023-03-13T17:47:17.685Z,0.90
2023-03-13T17:49:44.817Z,0.60
2023-03-13T17:52:18.292Z,0.73
2023-03-13T17:54:45.668Z,0.70
2023-03-13T17:57:22.824Z,0.60
2023-03-13T17:59:49.955Z,0.60
2023-03-13T18:02:17.792Z,0.63
2023-03-13T18:04:45.153Z,0.50
2023-03-13T18:07:24.753Z,0.77
2023-03-13T18:09:51.816Z,0.80
2023-03-13T18:12:18.768Z,0.73
2023-03-13T18:14:45.536Z,0.57
2023-03-13T18:17:23.954Z,0.77
2023-03-13T18:19:50.854Z,1.93
2023-03-13T18:22:21.525Z,1.47
2023-03-13T18:24:48.286Z,1.00
2023-03-13T18:27:20.126Z,1.10
2023-03-13T18:29:49.106Z,1.20
2023-03-13T18:32:18.187Z,1.33
2023-03-13T18:34:45.556Z,0.90
2023-03-13T18:37:24.224Z,0.80
2023-03-13T18:39:51.339Z,1.30
2023-03-13T18:42:18.511Z,1.00
2023-03-13T18:44:45.296Z,1.10
2023-03-13T18:47:14.231Z,0.87
2023-03-13T18:49:41.198Z,1.20
2023-03-13T18:52:08.151Z,0.90
2023-03-13T18:54:34.936Z,1.87
2023-03-13T18:57:03.518Z,1.13
2023-03-13T18:59:30.366Z,1.20
2023-03-13T19:01:58.384Z,2.10
2023-03-13T19:04:25.164Z,1.10
2023-03-13T19:06:53.321Z,1.00
2023-03-13T19:09:42.157Z,0.70
2023-03-13T19:12:10.087Z,0.50
2023-03-13T19:14:36.901Z,0.80
2023-03-13T19:17:07.127Z,0.70
2023-03-13T19:19:34.142Z,0.60
2023-03-13T19:22:01.119Z,0.80
2023-03-13T19:24:28.109Z,1.10
2023-03-13T19:26:58.946Z,0.90
2023-03-13T19:29:28.226Z,0.60
2023-03-13T19:31:55.362Z,0.90
2023-03-13T19:34:22.439Z,0.80
2023-03-13T19:36:50.466Z,0.80
2023-03-13T19:39:19.299Z,1.00
2023-03-13T19:41:48.262Z,0.70
2023-03-13T19:44:15.988Z,0.90
2023-03-13T19:46:43.522Z,0.90
2023-03-13T19:49:15.372Z,0.60
2023-03-13T19:51:42.414Z,0.50
2023-03-13T19:54:12.934Z,0.60
2023-03-13T19:56:41.283Z,0.80
2023-03-13T19:59:15.297Z,0.70
2023-03-13T20:01:42.692Z,1.23
2023-03-13T20:04:10.208Z,1.90
2023-03-13T20:06:39.921Z,2.80
2023-03-13T20:09:12.254Z,3.00
2023-03-13T20:11:39.124Z,2.73
2023-03-13T20:14:06.613Z,2.03
2023-03-13T20:16:35.269Z,2.20
2023-03-13T20:19:02.738Z,2.10
2023-03-13T20:21:36.444Z,1.70
2023-03-13T20:24:03.516Z,1.70
2023-03-13T20:26:30.569Z,1.80
2023-03-13T20:28:57.899Z,1.40
2023-03-13T20:31:27.830Z,1.00
2023-03-13T20:33:56.185Z,0.60
2023-03-13T20:36:23.825Z,0.40
2023-03-13T20:38:51.167Z,0.30
2023-03-13T20:41:21.062Z,0.40
2023-03-13T20:43:47.827Z,0.60
2023-03-13T20:46:14.742Z,0.40
2023-03-13T20:48:44.360Z,0.20
2023-03-13T20:51:11.169Z,0.50
2023-03-13T20:53:40.026Z,0.40
2023-03-13T20:56:07.667Z,0.30
2023-03-13T20:58:35.652Z,0.60
2023-03-13T21:01:03.603Z,0.37
2023-03-13T21:03:35.045Z,0.57
2023-03-13T21:06:16.279Z,0.60
2023-03-13T21:08:43.846Z,0.70
2023-03-13T21:11:19.156Z,0.30
2023-03-13T21:13:46.674Z,0.40
2023-03-13T21:16:14.421Z,0.80
2023-03-13T21:18:41.851Z,0.80
2023-03-13T21:21:13.314Z,1.47
2023-03-13T21:23:40.206Z,1.00
2023-03-13T21:26:07.260Z,0.80
2023-03-13T21:28:34.468Z,0.80
2023-03-13T21:31:09.612Z,0.93
2023-03-13T21:33:36.467Z,0.50
2023-03-13T21:36:03.539Z,0.50
2023-03-13T21:38:30.296Z,0.60
2023-03-13T21:40:58.382Z,0.70
2023-03-13T21:43:28.072Z,0.30
2023-03-13T21:45:57.645Z,0.57
2023-03-13T21:48:24.499Z,0.40
2023-03-13T21:50:52.778Z,0.50
2023-03-13T21:53:19.587Z,0.57
2023-03-13T21:55:49.870Z,0.47
2023-03-13T21:58:17.308Z,0.50
2023-03-13T22:00:44.608Z,0.87
2023-03-13T22:03:11.462Z,0.33
2023-03-13T22:05:42.513Z,0.50
2023-03-13T22:08:09.362Z,0.57
2023-03-13T22:10:38.027Z,0.60
2023-03-13T22:13:05.922Z,0.50
2023-03-13T22:15:32.708Z,0.60
2023-03-13T22:17:59.755Z,0.63
2023-03-13T22:20:26.655Z,0.63
2023-03-13T22:22:53.368Z,0.70
2023-03-13T22:25:20.117Z,0.67
2023-03-13T22:27:46.909Z,1.00
2023-03-13T22:30:14.257Z,0.80
2023-03-13T22:32:41.151Z,0.67
2023-03-13T22:35:08.684Z,0.60
2023-03-13T22:37:35.763Z,0.70
2023-03-13T22:40:02.898Z,0.40
2023-03-13T22:42:29.581Z,0.57
2023-03-13T22:44:57.022Z,0.50
2023-03-13T22:47:25.986Z,1.00
2023-03-13T22:49:53.547Z,0.50
2023-03-13T22:52:21.305Z,0.50
2023-03-13T22:54:48.026Z,0.63
2023-03-13T22:57:14.750Z,0.73
2023-03-13T22:59:41.474Z,0.70
2023-03-13T23:02:08.149Z,0.50
2023-03-13T23:04:34.810Z,0.60
2023-03-13T23:07:01.517Z,0.60
2023-03-13T23:09:28.225Z,0.70
2023-03-13T23:11:54.914Z,0.70
2023-03-13T23:14:21.591Z,0.60
2023-03-13T23:16:48.528Z,0.60
2023-03-13T23:19:15.241Z,0.50
2023-03-13T23:21:41.946Z,0.50
2023-03-13T23:24:08.958Z,0.27
2023-03-13T23:26:35.808Z,0.30
2023-03-13T23:29:02.498Z,0.40
2023-03-13T23:31:29.267Z,0.40
2023-03-13T23:33:56.090Z,0.30
2023-03-13T23:36:22.703Z,0.40
2023-03-13T23:38:51.010Z,0.30
2023-03-13T23:41:18.387Z,0.60
2023-03-13T23:43:45.092Z,0.50
2023-03-13T23:46:16.840Z,0.30
2023-03-13T23:48:43.690Z,0.30
2023-03-13T23:51:10.508Z,0.40
2023-03-13T23:53:41.817Z,0.30
2023-03-13T23:56:09.277Z,0.37
2023-03-13T23:58:35.973Z,0.23
